sensor_id;sensor_type;location;lat;lon;timestamp;temperature;humidity
78886;DHT22;68269;52.514;5.722;2023-07-08T00:01:20;21.50;56.60
78886;DHT22;68269;52.514;5.722;2023-07-08T00:03:52;21.40;56.70
78886;DHT22;68269;52.514;5.722;2023-07-08T00:06:25;21.40;56.80
78886;DHT22;68269;52.514;5.722;2023-07-08T00:08:54;21.40;56.80
78886;DHT22;68269;52.514;5.722;2023-07-08T00:11:24;21.40;56.80
78886;DHT22;68269;52.514;5.722;2023-07-08T00:13:54;21.30;56.80
78886;DHT22;68269;52.514;5.722;2023-07-08T00:16:24;21.30;56.80
78886;DHT22;68269;52.514;5.722;2023-07-08T00:18:56;21.30;56.90
78886;DHT22;68269;52.514;5.722;2023-07-08T00:21:25;21.30;57.00
78886;DHT22;68269;52.514;5.722;2023-07-08T00:23:55;21.30;57.00
78886;DHT22;68269;52.514;5.722;2023-07-08T00:26:28;21.20;57.00
78886;DHT22;68269;52.514;5.722;2023-07-08T00:29:05;21.10;57.10
78886;DHT22;68269;52.514;5.722;2023-07-08T00:31:37;21.10;57.10
78886;DHT22;68269;52.514;5.722;2023-07-08T00:34:09;21.10;57.20
78886;DHT22;68269;52.514;5.722;2023-07-08T00:36:39;21.10;57.20
78886;DHT22;68269;52.514;5.722;2023-07-08T00:39:13;21.10;57.10
78886;DHT22;68269;52.514;5.722;2023-07-08T00:41:44;21.10;57.20
78886;DHT22;68269;52.514;5.722;2023-07-08T00:44:13;21.10;57.20
78886;DHT22;68269;52.514;5.722;2023-07-08T00:46:50;21.00;57.30
78886;DHT22;68269;52.514;5.722;2023-07-08T00:49:31;21.00;57.40
78886;DHT22;68269;52.514;5.722;2023-07-08T00:52:22;21.00;57.40
78886;DHT22;68269;52.514;5.722;2023-07-08T00:54:54;21.00;57.40
78886;DHT22;68269;52.514;5.722;2023-07-08T00:57:26;20.90;57.40
78886;DHT22;68269;52.514;5.722;2023-07-08T01:00:00;20.90;57.40
78886;DHT22;68269;52.514;5.722;2023-07-08T01:02:34;20.90;57.50
78886;DHT22;68269;52.514;5.722;2023-07-08T01:05:10;20.80;57.60
78886;DHT22;68269;52.514;5.722;2023-07-08T01:07:43;20.80;57.60
78886;DHT22;68269;52.514;5.722;2023-07-08T01:10:16;20.80;57.70
78886;DHT22;68269;52.514;5.722;2023-07-08T01:12:50;20.80;57.60
78886;DHT22;68269;52.514;5.722;2023-07-08T01:15:23;20.70;57.70
78886;DHT22;68269;52.514;5.722;2023-07-08T01:17:55;20.70;57.70
78886;DHT22;68269;52.514;5.722;2023-07-08T01:20:27;20.70;57.80
78886;DHT22;68269;52.514;5.722;2023-07-08T01:22:59;20.70;57.80
78886;DHT22;68269;52.514;5.722;2023-07-08T01:25:30;20.60;57.80
78886;DHT22;68269;52.514;5.722;2023-07-08T01:28:00;20.60;57.90
78886;DHT22;68269;52.514;5.722;2023-07-08T01:30:30;20.60;57.90
78886;DHT22;68269;52.514;5.722;2023-07-08T01:33:04;20.50;57.90
78886;DHT22;68269;52.514;5.722;2023-07-08T01:35:35;20.50;58.00
78886;DHT22;68269;52.514;5.722;2023-07-08T01:38:10;20.50;58.10
78886;DHT22;68269;52.514;5.722;2023-07-08T01:40:49;20.50;58.20
78886;DHT22;68269;52.514;5.722;2023-07-08T01:43:18;20.40;58.20
78886;DHT22;68269;52.514;5.722;2023-07-08T01:45:49;20.40;58.20
78886;DHT22;68269;52.514;5.722;2023-07-08T01:48:22;20.30;58.20
78886;DHT22;68269;52.514;5.722;2023-07-08T01:51:01;20.30;58.20
78886;DHT22;68269;52.514;5.722;2023-07-08T01:53:36;20.30;58.20
78886;DHT22;68269;52.514;5.722;2023-07-08T01:56:07;20.30;58.20
78886;DHT22;68269;52.514;5.722;2023-07-08T01:58:36;20.30;58.20
78886;DHT22;68269;52.514;5.722;2023-07-08T02:01:06;20.30;58.20
78886;DHT22;68269;52.514;5.722;2023-07-08T02:03:36;20.30;58.20
78886;DHT22;68269;52.514;5.722;2023-07-08T02:06:05;20.30;58.20
78886;DHT22;68269;52.514;5.722;2023-07-08T02:08:37;20.30;58.20
78886;DHT22;68269;52.514;5.722;2023-07-08T02:11:06;20.30;58.20
78886;DHT22;68269;52.514;5.722;2023-07-08T02:13:36;20.30;58.20
78886;DHT22;68269;52.514;5.722;2023-07-08T02:16:06;20.20;58.30
78886;DHT22;68269;52.514;5.722;2023-07-08T02:18:36;20.20;58.30
78886;DHT22;68269;52.514;5.722;2023-07-08T02:21:05;20.10;58.30
78886;DHT22;68269;52.514;5.722;2023-07-08T02:23:37;20.10;58.40
78886;DHT22;68269;52.514;5.722;2023-07-08T02:26:07;20.10;58.40
78886;DHT22;68269;52.514;5.722;2023-07-08T02:28:36;20.10;58.40
78886;DHT22;68269;52.514;5.722;2023-07-08T02:31:05;20.00;58.40
78886;DHT22;68269;52.514;5.722;2023-07-08T02:33:35;20.00;58.40
78886;DHT22;68269;52.514;5.722;2023-07-08T02:36:04;20.00;58.40
78886;DHT22;68269;52.514;5.722;2023-07-08T02:38:36;20.00;58.40
78886;DHT22;68269;52.514;5.722;2023-07-08T02:41:07;20.00;58.40
78886;DHT22;68269;52.514;5.722;2023-07-08T02:43:37;19.90;58.50
78886;DHT22;68269;52.514;5.722;2023-07-08T02:46:07;19.90;58.50
78886;DHT22;68269;52.514;5.722;2023-07-08T02:48:36;19.90;58.50
78886;DHT22;68269;52.514;5.722;2023-07-08T02:51:06;19.90;58.50
78886;DHT22;68269;52.514;5.722;2023-07-08T02:53:38;19.90;58.50
78886;DHT22;68269;52.514;5.722;2023-07-08T02:56:08;19.90;58.60
78886;DHT22;68269;52.514;5.722;2023-07-08T02:58:37;19.80;58.50
78886;DHT22;68269;52.514;5.722;2023-07-08T03:01:07;19.80;58.60
78886;DHT22;68269;52.514;5.722;2023-07-08T03:03:37;19.70;58.70
78886;DHT22;68269;52.514;5.722;2023-07-08T03:06:06;19.70;58.70
78886;DHT22;68269;52.514;5.722;2023-07-08T03:08:38;19.70;58.80
78886;DHT22;68269;52.514;5.722;2023-07-08T03:11:08;19.70;58.80
78886;DHT22;68269;52.514;5.722;2023-07-08T03:13:37;19.60;58.90
78886;DHT22;68269;52.514;5.722;2023-07-08T03:16:08;19.60;58.90
78886;DHT22;68269;52.514;5.722;2023-07-08T03:18:39;19.50;58.90
78886;DHT22;68269;52.514;5.722;2023-07-08T03:21:14;19.50;59.00
78886;DHT22;68269;52.514;5.722;2023-07-08T03:23:47;19.50;59.00
78886;DHT22;68269;52.514;5.722;2023-07-08T03:26:19;19.50;59.00
78886;DHT22;68269;52.514;5.722;2023-07-08T03:28:50;19.50;59.00
78886;DHT22;68269;52.514;5.722;2023-07-08T03:31:20;19.40;58.90
78886;DHT22;68269;52.514;5.722;2023-07-08T03:33:51;19.40;59.00
78886;DHT22;68269;52.514;5.722;2023-07-08T03:36:21;19.40;59.00
78886;DHT22;68269;52.514;5.722;2023-07-08T03:38:56;19.30;59.00
78886;DHT22;68269;52.514;5.722;2023-07-08T03:41:27;19.30;59.10
78886;DHT22;68269;52.514;5.722;2023-07-08T03:43:58;19.30;59.10
78886;DHT22;68269;52.514;5.722;2023-07-08T03:46:28;19.30;59.20
78886;DHT22;68269;52.514;5.722;2023-07-08T03:48:57;19.20;59.10
78886;DHT22;68269;52.514;5.722;2023-07-08T03:51:29;19.20;59.20
78886;DHT22;68269;52.514;5.722;2023-07-08T03:54:01;19.20;59.20
78886;DHT22;68269;52.514;5.722;2023-07-08T03:56:34;19.20;59.30
78886;DHT22;68269;52.514;5.722;2023-07-08T03:59:04;19.20;59.30
78886;DHT22;68269;52.514;5.722;2023-07-08T04:01:34;19.20;59.30
78886;DHT22;68269;52.514;5.722;2023-07-08T04:04:10;19.20;59.40
78886;DHT22;68269;52.514;5.722;2023-07-08T04:06:42;19.20;59.40
78886;DHT22;68269;52.514;5.722;2023-07-08T04:09:15;19.20;59.40
78886;DHT22;68269;52.514;5.722;2023-07-08T04:11:44;19.10;59.50
78886;DHT22;68269;52.514;5.722;2023-07-08T04:14:14;19.10;59.50
78886;DHT22;68269;52.514;5.722;2023-07-08T04:16:48;19.10;59.40
78886;DHT22;68269;52.514;5.722;2023-07-08T04:19:19;19.10;59.50
78886;DHT22;68269;52.514;5.722;2023-07-08T04:21:49;19.10;59.50
78886;DHT22;68269;52.514;5.722;2023-07-08T04:24:21;19.10;59.60
78886;DHT22;68269;52.514;5.722;2023-07-08T04:26:50;19.10;59.60
78886;DHT22;68269;52.514;5.722;2023-07-08T04:29:22;19.10;59.60
78886;DHT22;68269;52.514;5.722;2023-07-08T04:31:51;19.10;59.60
78886;DHT22;68269;52.514;5.722;2023-07-08T04:34:20;19.10;59.60
78886;DHT22;68269;52.514;5.722;2023-07-08T04:36:50;19.10;59.60
78886;DHT22;68269;52.514;5.722;2023-07-08T04:39:22;19.10;59.60
78886;DHT22;68269;52.514;5.722;2023-07-08T04:41:51;19.10;59.60
78886;DHT22;68269;52.514;5.722;2023-07-08T04:44:20;19.10;59.70
78886;DHT22;68269;52.514;5.722;2023-07-08T04:46:52;19.10;59.70
78886;DHT22;68269;52.514;5.722;2023-07-08T04:49:22;19.20;59.70
78886;DHT22;68269;52.514;5.722;2023-07-08T04:51:57;19.20;59.70
78886;DHT22;68269;52.514;5.722;2023-07-08T04:54:30;19.20;59.70
78886;DHT22;68269;52.514;5.722;2023-07-08T04:57:00;19.20;59.70
78886;DHT22;68269;52.514;5.722;2023-07-08T04:59:29;19.20;59.80
78886;DHT22;68269;52.514;5.722;2023-07-08T05:02:00;19.20;59.70
78886;DHT22;68269;52.514;5.722;2023-07-08T05:04:30;19.30;59.80
78886;DHT22;68269;52.514;5.722;2023-07-08T05:06:59;19.30;59.80
78886;DHT22;68269;52.514;5.722;2023-07-08T05:09:31;19.30;59.90
78886;DHT22;68269;52.514;5.722;2023-07-08T05:12:02;19.30;59.90
78886;DHT22;68269;52.514;5.722;2023-07-08T05:14:32;19.30;59.80
78886;DHT22;68269;52.514;5.722;2023-07-08T05:17:02;19.40;59.80
78886;DHT22;68269;52.514;5.722;2023-07-08T05:19:31;19.40;59.80
78886;DHT22;68269;52.514;5.722;2023-07-08T05:22:00;19.40;59.80
78886;DHT22;68269;52.514;5.722;2023-07-08T05:24:32;19.40;59.80
78886;DHT22;68269;52.514;5.722;2023-07-08T05:27:04;19.50;59.80
78886;DHT22;68269;52.514;5.722;2023-07-08T05:29:33;19.50;59.80
78886;DHT22;68269;52.514;5.722;2023-07-08T05:32:03;19.50;59.90
78886;DHT22;68269;52.514;5.722;2023-07-08T05:34:32;19.50;59.90
78886;DHT22;68269;52.514;5.722;2023-07-08T05:37:02;19.50;59.90
78886;DHT22;68269;52.514;5.722;2023-07-08T05:39:33;19.60;59.90
78886;DHT22;68269;52.514;5.722;2023-07-08T05:42:03;19.60;60.00
78886;DHT22;68269;52.514;5.722;2023-07-08T05:44:33;19.60;60.00
78886;DHT22;68269;52.514;5.722;2023-07-08T05:47:02;19.60;59.90
78886;DHT22;68269;52.514;5.722;2023-07-08T05:49:32;19.70;60.00
78886;DHT22;68269;52.514;5.722;2023-07-08T05:52:02;19.70;60.00
78886;DHT22;68269;52.514;5.722;2023-07-08T05:54:40;19.70;60.00
78886;DHT22;68269;52.514;5.722;2023-07-08T05:57:10;19.70;60.00
78886;DHT22;68269;52.514;5.722;2023-07-08T05:59:40;19.80;60.00
78886;DHT22;68269;52.514;5.722;2023-07-08T06:02:11;19.90;60.00
78886;DHT22;68269;52.514;5.722;2023-07-08T06:04:41;19.90;60.00
78886;DHT22;68269;52.514;5.722;2023-07-08T06:07:10;19.90;60.00
78886;DHT22;68269;52.514;5.722;2023-07-08T06:09:42;20.00;60.00
78886;DHT22;68269;52.514;5.722;2023-07-08T06:12:11;20.00;60.00
78886;DHT22;68269;52.514;5.722;2023-07-08T06:14:41;20.00;60.00
78886;DHT22;68269;52.514;5.722;2023-07-08T06:17:10;20.10;60.00
78886;DHT22;68269;52.514;5.722;2023-07-08T06:19:40;20.10;60.00
78886;DHT22;68269;52.514;5.722;2023-07-08T06:22:09;20.10;60.10
78886;DHT22;68269;52.514;5.722;2023-07-08T06:24:41;20.20;60.00
78886;DHT22;68269;52.514;5.722;2023-07-08T06:27:10;20.30;60.10
78886;DHT22;68269;52.514;5.722;2023-07-08T06:29:40;20.30;60.00
78886;DHT22;68269;52.514;5.722;2023-07-08T06:32:09;20.40;60.00
78886;DHT22;68269;52.514;5.722;2023-07-08T06:34:39;20.50;60.00
78886;DHT22;68269;52.514;5.722;2023-07-08T06:37:08;20.50;60.00
78886;DHT22;68269;52.514;5.722;2023-07-08T06:39:37;20.60;59.90
78886;DHT22;68269;52.514;5.722;2023-07-08T06:42:09;20.60;59.80
78886;DHT22;68269;52.514;5.722;2023-07-08T06:44:45;20.70;59.80
78886;DHT22;68269;52.514;5.722;2023-07-08T06:47:17;20.70;59.80
78886;DHT22;68269;52.514;5.722;2023-07-08T06:49:46;20.80;59.80
78886;DHT22;68269;52.514;5.722;2023-07-08T06:52:16;20.80;59.80
78886;DHT22;68269;52.514;5.722;2023-07-08T06:54:45;20.90;59.80
78886;DHT22;68269;52.514;5.722;2023-07-08T06:57:17;21.00;59.80
78886;DHT22;68269;52.514;5.722;2023-07-08T06:59:46;21.00;59.80
78886;DHT22;68269;52.514;5.722;2023-07-08T07:02:15;21.10;59.70
78886;DHT22;68269;52.514;5.722;2023-07-08T07:04:46;21.10;59.70
78886;DHT22;68269;52.514;5.722;2023-07-08T07:07:15;21.10;59.70
78886;DHT22;68269;52.514;5.722;2023-07-08T07:09:44;21.30;59.70
78886;DHT22;68269;52.514;5.722;2023-07-08T07:12:16;21.30;59.60
78886;DHT22;68269;52.514;5.722;2023-07-08T07:14:46;21.40;59.60
78886;DHT22;68269;52.514;5.722;2023-07-08T07:17:16;21.40;59.50
78886;DHT22;68269;52.514;5.722;2023-07-08T07:19:45;21.50;59.50
78886;DHT22;68269;52.514;5.722;2023-07-08T07:22:15;21.50;59.50
78886;DHT22;68269;52.514;5.722;2023-07-08T07:24:44;21.70;59.40
78886;DHT22;68269;52.514;5.722;2023-07-08T07:27:13;21.70;59.30
78886;DHT22;68269;52.514;5.722;2023-07-08T07:29:47;21.70;59.30
78886;DHT22;68269;52.514;5.722;2023-07-08T07:32:18;21.80;59.30
78886;DHT22;68269;52.514;5.722;2023-07-08T07:34:49;21.90;59.30
78886;DHT22;68269;52.514;5.722;2023-07-08T07:37:20;21.90;59.30
78886;DHT22;68269;52.514;5.722;2023-07-08T07:39:50;22.00;59.20
78886;DHT22;68269;52.514;5.722;2023-07-08T07:42:19;22.00;59.20
78886;DHT22;68269;52.514;5.722;2023-07-08T07:44:51;22.10;59.20
78886;DHT22;68269;52.514;5.722;2023-07-08T07:47:20;22.20;59.10
78886;DHT22;68269;52.514;5.722;2023-07-08T07:49:50;22.30;59.00
78886;DHT22;68269;52.514;5.722;2023-07-08T07:52:19;22.30;59.00
78886;DHT22;68269;52.514;5.722;2023-07-08T07:54:51;22.50;58.90
78886;DHT22;68269;52.514;5.722;2023-07-08T07:57:20;22.50;58.80
78886;DHT22;68269;52.514;5.722;2023-07-08T07:59:52;22.60;58.70
78886;DHT22;68269;52.514;5.722;2023-07-08T08:02:21;22.70;58.60
78886;DHT22;68269;52.514;5.722;2023-07-08T08:04:51;22.70;58.50
78886;DHT22;68269;52.514;5.722;2023-07-08T08:07:20;22.80;58.50
78886;DHT22;68269;52.514;5.722;2023-07-08T08:09:51;22.80;58.40
78886;DHT22;68269;52.514;5.722;2023-07-08T08:12:21;22.90;58.40
78886;DHT22;68269;52.514;5.722;2023-07-08T08:14:54;23.00;58.40
78886;DHT22;68269;52.514;5.722;2023-07-08T08:17:23;23.10;58.20
78886;DHT22;68269;52.514;5.722;2023-07-08T08:19:52;23.10;58.20
78886;DHT22;68269;52.514;5.722;2023-07-08T08:22:21;23.20;58.20
78886;DHT22;68269;52.514;5.722;2023-07-08T08:24:51;23.30;58.10
78886;DHT22;68269;52.514;5.722;2023-07-08T08:27:20;23.40;58.00
78886;DHT22;68269;52.514;5.722;2023-07-08T08:29:49;23.40;58.00
78886;DHT22;68269;52.514;5.722;2023-07-08T08:32:21;23.50;57.90
78886;DHT22;68269;52.514;5.722;2023-07-08T08:34:51;23.60;57.90
78886;DHT22;68269;52.514;5.722;2023-07-08T08:37:20;23.60;57.90
78886;DHT22;68269;52.514;5.722;2023-07-08T08:39:49;23.70;57.90
78886;DHT22;68269;52.514;5.722;2023-07-08T08:42:24;23.80;57.80
78886;DHT22;68269;52.514;5.722;2023-07-08T08:44:54;23.90;57.80
78886;DHT22;68269;52.514;5.722;2023-07-08T08:47:35;24.00;57.80
78886;DHT22;68269;52.514;5.722;2023-07-08T08:50:21;24.00;57.70
78886;DHT22;68269;52.514;5.722;2023-07-08T08:52:53;24.10;57.60
78886;DHT22;68269;52.514;5.722;2023-07-08T08:55:23;24.20;57.70
78886;DHT22;68269;52.514;5.722;2023-07-08T08:57:59;24.20;57.60
78886;DHT22;68269;52.514;5.722;2023-07-08T09:00:39;24.40;57.50
78886;DHT22;68269;52.514;5.722;2023-07-08T09:03:16;24.40;57.40
78886;DHT22;68269;52.514;5.722;2023-07-08T09:05:46;24.50;57.30
78886;DHT22;68269;52.514;5.722;2023-07-08T09:08:20;24.60;57.30
78886;DHT22;68269;52.514;5.722;2023-07-08T09:10:56;24.60;57.30
78886;DHT22;68269;52.514;5.722;2023-07-08T09:13:32;24.70;57.20
78886;DHT22;68269;52.514;5.722;2023-07-08T09:16:06;24.80;57.10
78886;DHT22;68269;52.514;5.722;2023-07-08T09:18:49;24.90;57.00
78886;DHT22;68269;52.514;5.722;2023-07-08T09:21:28;25.00;56.80
78886;DHT22;68269;52.514;5.722;2023-07-08T09:24:02;25.00;56.80
78886;DHT22;68269;52.514;5.722;2023-07-08T09:26:33;25.10;56.70
78886;DHT22;68269;52.514;5.722;2023-07-08T09:29:08;25.20;56.70
78886;DHT22;68269;52.514;5.722;2023-07-08T09:31:39;25.30;56.60
78886;DHT22;68269;52.514;5.722;2023-07-08T09:34:13;25.30;56.60
78886;DHT22;68269;52.514;5.722;2023-07-08T09:36:45;25.40;56.50
78886;DHT22;68269;52.514;5.722;2023-07-08T09:39:18;25.50;56.50
78886;DHT22;68269;52.514;5.722;2023-07-08T09:41:48;25.50;56.40
78886;DHT22;68269;52.514;5.722;2023-07-08T09:44:22;25.60;56.30
78886;DHT22;68269;52.514;5.722;2023-07-08T09:46:57;25.70;56.20
78886;DHT22;68269;52.514;5.722;2023-07-08T09:49:32;25.80;56.10
78886;DHT22;68269;52.514;5.722;2023-07-08T09:52:03;25.90;56.00
78886;DHT22;68269;52.514;5.722;2023-07-08T09:54:33;26.00;55.80
78886;DHT22;68269;52.514;5.722;2023-07-08T09:57:12;26.00;55.70
78886;DHT22;68269;52.514;5.722;2023-07-08T09:59:45;26.10;55.70
78886;DHT22;68269;52.514;5.722;2023-07-08T10:02:26;26.20;55.60
78886;DHT22;68269;52.514;5.722;2023-07-08T10:05:00;26.20;55.50
78886;DHT22;68269;52.514;5.722;2023-07-08T10:07:31;26.40;55.40
78886;DHT22;68269;52.514;5.722;2023-07-08T10:10:07;26.40;55.40
78886;DHT22;68269;52.514;5.722;2023-07-08T10:12:39;26.50;55.20
78886;DHT22;68269;52.514;5.722;2023-07-08T10:15:17;26.70;55.10
78886;DHT22;68269;52.514;5.722;2023-07-08T10:17:47;26.80;55.00
78886;DHT22;68269;52.514;5.722;2023-07-08T10:20:19;26.90;54.80
78886;DHT22;68269;52.514;5.722;2023-07-08T10:22:59;27.00;54.70
78886;DHT22;68269;52.514;5.722;2023-07-08T10:25:35;27.00;54.50
78886;DHT22;68269;52.514;5.722;2023-07-08T10:28:21;27.10;54.60
78886;DHT22;68269;52.514;5.722;2023-07-08T10:31:01;27.20;54.40
78886;DHT22;68269;52.514;5.722;2023-07-08T10:36:44;27.40;54.40
78886;DHT22;68269;52.514;5.722;2023-07-08T10:39:35;27.50;54.30
78886;DHT22;68269;52.514;5.722;2023-07-08T10:42:15;27.50;54.30
78886;DHT22;68269;52.514;5.722;2023-07-08T10:44:57;27.50;54.30
78886;DHT22;68269;52.514;5.722;2023-07-08T10:47:40;27.60;54.20
78886;DHT22;68269;52.514;5.722;2023-07-08T10:50:23;27.70;54.00
78886;DHT22;68269;52.514;5.722;2023-07-08T10:53:02;27.70;54.10
78886;DHT22;68269;52.514;5.722;2023-07-08T10:55:46;27.70;54.00
78886;DHT22;68269;52.514;5.722;2023-07-08T10:58:44;27.80;53.80
78886;DHT22;68269;52.514;5.722;2023-07-08T11:01:21;28.00;53.70
78886;DHT22;68269;52.514;5.722;2023-07-08T11:06:48;28.00;53.50
78886;DHT22;68269;52.514;5.722;2023-07-08T11:09:37;28.00;53.70
78886;DHT22;68269;52.514;5.722;2023-07-08T11:12:17;28.10;53.70
78886;DHT22;68269;52.514;5.722;2023-07-08T11:14:55;28.10;53.60
78886;DHT22;68269;52.514;5.722;2023-07-08T11:17:30;28.30;53.60
78886;DHT22;68269;52.514;5.722;2023-07-08T11:20:13;28.30;53.40
78886;DHT22;68269;52.514;5.722;2023-07-08T11:22:49;28.40;53.30
78886;DHT22;68269;52.514;5.722;2023-07-08T11:25:24;28.50;53.20
78886;DHT22;68269;52.514;5.722;2023-07-08T11:27:57;28.60;52.90
78886;DHT22;68269;52.514;5.722;2023-07-08T11:30:30;28.70;52.90
78886;DHT22;68269;52.514;5.722;2023-07-08T11:33:09;28.90;52.80
78886;DHT22;68269;52.514;5.722;2023-07-08T11:35:44;28.90;52.80
78886;DHT22;68269;52.514;5.722;2023-07-08T11:38:17;29.00;52.50
78886;DHT22;68269;52.514;5.722;2023-07-08T11:40:56;29.20;52.50
78886;DHT22;68269;52.514;5.722;2023-07-08T11:43:28;29.20;52.30
78886;DHT22;68269;52.514;5.722;2023-07-08T11:46:05;29.30;52.20
78886;DHT22;68269;52.514;5.722;2023-07-08T11:48:40;29.40;52.20
78886;DHT22;68269;52.514;5.722;2023-07-08T11:51:16;29.50;52.10
78886;DHT22;68269;52.514;5.722;2023-07-08T11:53:50;29.50;52.00
78886;DHT22;68269;52.514;5.722;2023-07-08T11:56:26;29.70;51.70
78886;DHT22;68269;52.514;5.722;2023-07-08T11:59:08;29.70;51.60
78886;DHT22;68269;52.514;5.722;2023-07-08T12:01:46;29.70;51.50
78886;DHT22;68269;52.514;5.722;2023-07-08T12:04:24;29.70;51.60
78886;DHT22;68269;52.514;5.722;2023-07-08T12:07:01;29.80;51.70
78886;DHT22;68269;52.514;5.722;2023-07-08T12:09:38;29.80;51.90
78886;DHT22;68269;52.514;5.722;2023-07-08T12:12:16;29.80;51.90
78886;DHT22;68269;52.514;5.722;2023-07-08T12:14:46;30.00;51.50
78886;DHT22;68269;52.514;5.722;2023-07-08T12:17:16;30.10;51.50
78886;DHT22;68269;52.514;5.722;2023-07-08T12:19:47;30.20;51.40
78886;DHT22;68269;52.514;5.722;2023-07-08T12:22:17;30.30;51.20
78886;DHT22;68269;52.514;5.722;2023-07-08T12:24:47;30.40;51.10
78886;DHT22;68269;52.514;5.722;2023-07-08T12:27:18;30.50;51.00
78886;DHT22;68269;52.514;5.722;2023-07-08T12:29:48;30.60;50.80
78886;DHT22;68269;52.514;5.722;2023-07-08T12:32:17;30.60;50.70
78886;DHT22;68269;52.514;5.722;2023-07-08T12:34:51;30.70;50.60
78886;DHT22;68269;52.514;5.722;2023-07-08T12:37:22;30.70;50.60
78886;DHT22;68269;52.514;5.722;2023-07-08T12:39:55;30.80;50.50
78886;DHT22;68269;52.514;5.722;2023-07-08T12:42:33;30.90;50.40
78886;DHT22;68269;52.514;5.722;2023-07-08T12:45:04;31.00;50.30
78886;DHT22;68269;52.514;5.722;2023-07-08T12:47:40;31.00;50.40
78886;DHT22;68269;52.514;5.722;2023-07-08T12:50:10;31.10;50.50
78886;DHT22;68269;52.514;5.722;2023-07-08T12:52:42;31.10;50.50
78886;DHT22;68269;52.514;5.722;2023-07-08T12:55:12;31.10;50.60
78886;DHT22;68269;52.514;5.722;2023-07-08T12:57:51;31.20;50.50
78886;DHT22;68269;52.514;5.722;2023-07-08T13:00:26;31.30;50.30
78886;DHT22;68269;52.514;5.722;2023-07-08T13:02:58;31.30;50.20
78886;DHT22;68269;52.514;5.722;2023-07-08T13:05:28;31.40;50.00
78886;DHT22;68269;52.514;5.722;2023-07-08T13:07:58;31.40;49.80
78886;DHT22;68269;52.514;5.722;2023-07-08T13:10:29;31.50;49.60
78886;DHT22;68269;52.514;5.722;2023-07-08T13:13:04;31.60;49.50
78886;DHT22;68269;52.514;5.722;2023-07-08T13:15:37;31.70;49.40
78886;DHT22;68269;52.514;5.722;2023-07-08T13:18:14;31.80;49.20
78886;DHT22;68269;52.514;5.722;2023-07-08T13:20:45;31.80;49.00
78886;DHT22;68269;52.514;5.722;2023-07-08T13:23:16;31.80;49.10
78886;DHT22;68269;52.514;5.722;2023-07-08T13:25:48;31.80;49.10
78886;DHT22;68269;52.514;5.722;2023-07-08T13:28:25;31.90;49.00
78886;DHT22;68269;52.514;5.722;2023-07-08T13:30:56;32.00;48.90
78886;DHT22;68269;52.514;5.722;2023-07-08T13:33:29;32.20;48.60
78886;DHT22;68269;52.514;5.722;2023-07-08T13:36:02;32.20;48.30
78886;DHT22;68269;52.514;5.722;2023-07-08T13:38:34;32.40;48.00
78886;DHT22;68269;52.514;5.722;2023-07-08T13:41:05;32.50;47.80
78886;DHT22;68269;52.514;5.722;2023-07-08T13:43:39;32.60;47.90
78886;DHT22;68269;52.514;5.722;2023-07-08T13:46:30;32.60;47.80
78886;DHT22;68269;52.514;5.722;2023-07-08T13:49:01;32.50;47.60
78886;DHT22;68269;52.514;5.722;2023-07-08T13:51:32;32.50;47.80
78886;DHT22;68269;52.514;5.722;2023-07-08T13:54:12;32.50;47.70
78886;DHT22;68269;52.514;5.722;2023-07-08T13:56:42;32.50;47.50
78886;DHT22;68269;52.514;5.722;2023-07-08T13:59:18;32.50;47.50
78886;DHT22;68269;52.514;5.722;2023-07-08T14:01:48;32.60;47.20
78886;DHT22;68269;52.514;5.722;2023-07-08T14:04:28;32.70;47.20
78886;DHT22;68269;52.514;5.722;2023-07-08T14:06:58;32.80;46.90
78886;DHT22;68269;52.514;5.722;2023-07-08T14:09:28;32.90;47.00
78886;DHT22;68269;52.514;5.722;2023-07-08T14:11:57;33.00;46.90
78886;DHT22;68269;52.514;5.722;2023-07-08T14:14:29;33.00;46.70
78886;DHT22;68269;52.514;5.722;2023-07-08T14:16:58;33.10;46.50
78886;DHT22;68269;52.514;5.722;2023-07-08T14:19:29;33.10;46.50
78886;DHT22;68269;52.514;5.722;2023-07-08T14:22:05;33.20;46.50
78886;DHT22;68269;52.514;5.722;2023-07-08T14:24:35;33.20;46.30
78886;DHT22;68269;52.514;5.722;2023-07-08T14:27:06;33.30;46.40
78886;DHT22;68269;52.514;5.722;2023-07-08T14:29:41;33.30;46.40
78886;DHT22;68269;52.514;5.722;2023-07-08T14:32:13;33.50;46.10
78886;DHT22;68269;52.514;5.722;2023-07-08T14:34:49;33.50;46.00
78886;DHT22;68269;52.514;5.722;2023-07-08T14:37:19;33.60;45.90
78886;DHT22;68269;52.514;5.722;2023-07-08T14:39:49;33.60;45.90
78886;DHT22;68269;52.514;5.722;2023-07-08T14:42:19;33.70;45.80
78886;DHT22;68269;52.514;5.722;2023-07-08T14:44:52;33.80;45.80
78886;DHT22;68269;52.514;5.722;2023-07-08T14:47:21;33.80;45.70
78886;DHT22;68269;52.514;5.722;2023-07-08T14:49:51;33.90;45.30
78886;DHT22;68269;52.514;5.722;2023-07-08T14:52:20;34.00;45.00
78886;DHT22;68269;52.514;5.722;2023-07-08T14:54:49;34.00;45.10
78886;DHT22;68269;52.514;5.722;2023-07-08T14:57:19;34.10;45.00
78886;DHT22;68269;52.514;5.722;2023-07-08T14:59:51;34.10;45.10
78886;DHT22;68269;52.514;5.722;2023-07-08T15:02:21;34.10;45.10
78886;DHT22;68269;52.514;5.722;2023-07-08T15:04:51;34.10;45.10
78886;DHT22;68269;52.514;5.722;2023-07-08T15:07:21;34.20;44.90
78886;DHT22;68269;52.514;5.722;2023-07-08T15:09:50;34.20;44.90
78886;DHT22;68269;52.514;5.722;2023-07-08T15:12:19;34.40;44.80
78886;DHT22;68269;52.514;5.722;2023-07-08T15:14:52;34.20;44.80
78886;DHT22;68269;52.514;5.722;2023-07-08T15:17:21;34.10;44.70
78886;DHT22;68269;52.514;5.722;2023-07-08T15:19:51;34.20;44.70
78886;DHT22;68269;52.514;5.722;2023-07-08T15:22:20;34.20;44.70
78886;DHT22;68269;52.514;5.722;2023-07-08T15:24:49;34.20;44.70
78886;DHT22;68269;52.514;5.722;2023-07-08T15:27:20;34.30;44.50
78886;DHT22;68269;52.514;5.722;2023-07-08T15:29:53;34.30;44.40
78886;DHT22;68269;52.514;5.722;2023-07-08T15:32:22;34.40;44.50
78886;DHT22;68269;52.514;5.722;2023-07-08T15:34:52;34.20;44.40
78886;DHT22;68269;52.514;5.722;2023-07-08T15:37:22;34.20;44.40
78886;DHT22;68269;52.514;5.722;2023-07-08T15:39:51;34.00;44.40
78886;DHT22;68269;52.514;5.722;2023-07-08T15:42:20;34.00;44.40
78886;DHT22;68269;52.514;5.722;2023-07-08T15:44:50;34.00;44.30
78886;DHT22;68269;52.514;5.722;2023-07-08T15:47:23;34.00;44.40
78886;DHT22;68269;52.514;5.722;2023-07-08T15:49:52;33.80;44.40
78886;DHT22;68269;52.514;5.722;2023-07-08T15:52:22;33.60;44.60
78886;DHT22;68269;52.514;5.722;2023-07-08T15:54:51;33.50;44.70
78886;DHT22;68269;52.514;5.722;2023-07-08T15:57:20;33.40;44.70
78886;DHT22;68269;52.514;5.722;2023-07-08T15:59:50;33.40;44.80
78886;DHT22;68269;52.514;5.722;2023-07-08T16:02:27;33.30;44.80
78886;DHT22;68269;52.514;5.722;2023-07-08T16:04:57;33.30;44.80
78886;DHT22;68269;52.514;5.722;2023-07-08T16:07:26;33.10;44.90